Latest Weather Observations for Trangie

IDN60801

Issued at 11:32 pm EST Sunday 20 August 2017 (issued every 30 minutes, with the page automatically refreshed every 10 minutes)

About weather observations | Map of weather stations | Latest weather observations for NSW | Other Formats
Station Details ID: 051049 Name: TRANGIE RESEARCH STATION AWS Lat: -31.99 Lon: 147.95 Height: 215.0 m
Data from the previous 72 hours. | See also: Recent months at Trangie
Date/Time
EST
Temp
°C
App
Temp
°C
Dew
Point
°C
Rel
Hum
%
Delta-T
°C
Wind Press
QNH
hPa
Press
MSL
hPa
Rain since
9am
mm
Dir  Spd
km/h
Gust
km/h
Spd
kts
Gust
kts
20/11:30pm 3.9 0.1 -5.3 51 3.0 SW 6 7 3 4 1019.9 1020.1 0.0
20/11:00pm 3.0 0.3 -5.6 53 2.8 CALM 0 0 0 0 1020.4 1020.6 0.0
20/10:30pm 3.2 0.5 -6.2 50 3.0 CALM 0 0 0 0 1020.4 1020.6 0.0
20/10:00pm 3.8 1.0 -6.5 47 3.3 CALM 0 6 0 3 1020.4 1020.6 0.0
20/09:30pm 4.0 1.2 -6.6 46 3.4 CALM 0 4 0 2 1020.5 1020.7 0.0
20/09:00pm 4.1 0.2 -6.7 45 3.4 SW 6 7 3 4 1020.5 1020.7 0.0
20/08:30pm 5.1 2.3 -7.0 41 3.9 CALM 0 0 0 0 1020.8 1021.0 0.0
20/08:00pm 6.2 3.5 -6.4 40 4.2 CALM 0 0 0 0 1021.0 1021.2 0.0
20/07:30pm 5.9 3.1 -7.0 39 4.2 CALM 0 0 0 0 1021.0 1021.2 0.0
20/07:00pm 7.0 4.1 -7.8 34 4.8 CALM 0 0 0 0 1021.0 1021.2 0.0
20/06:30pm 8.6 5.7 -8.4 29 5.6 CALM 0 2 0 1 1020.8 1021.0 0.0
20/06:00pm 9.6 5.3 -8.9 26 6.0 SW 7 11 4 6 1020.7 1020.9 0.0
20/05:30pm 13.5 9.3 -10.3 18 8.0 SSW 6 7 3 4 1020.4 1020.6 0.0
20/05:00pm 14.9 10.4 -12.3 14 8.9 SSW 7 11 4 6 1020.4 1020.6 0.0
20/04:30pm 15.5 10.5 -12.8 13 9.2 SSW 9 13 5 7 1020.4 1020.6 0.0
20/04:00pm 15.8 11.2 -13.5 12 9.4 SSE 7 13 4 7 1020.7 1020.9 0.0
20/03:30pm 16.5 12.0 -11.0 14 9.4 S 7 11 4 6 1021.0 1021.2 0.0
20/03:00pm 17.1 12.7 -10.6 14 9.6 W 7 15 4 8 1021.3 1021.5 0.0
20/02:30pm 16.0 11.3 -9.0 17 8.9 SSE 9 19 5 10 1021.5 1021.7 0.0
20/02:00pm 15.4 10.3 -9.5 17 8.7 SE 11 19 6 10 1021.8 1022.0 0.0
20/01:30pm 16.5 12.3 -7.2 19 8.8 SSW 7 13 4 7 1022.1 1022.3 0.0
20/01:00pm 15.3 10.9 -5.7 23 7.9 ESE 9 13 5 7 1022.8 1023.0 0.0
20/12:30pm 14.6 10.3 -4.7 26 7.4 SSE 9 17 5 9 1023.5 1023.7 0.0
20/12:00pm 14.4 10.3 -2.9 30 6.9 ESE 9 15 5 8 1024.3 1024.5 0.0
20/11:30am 13.2 9.2 -2.3 34 6.2 ESE 9 15 5 8 1025.1 1025.3 0.0
20/11:00am 12.3 8.7 -2.0 37 5.7 SSE 7 13 4 7 1025.7 1025.9 0.0
20/10:30am 11.7 8.3 -0.8 42 5.1 SSE 7 13 4 7 1026.2 1026.4 0.0
20/10:00am 10.9 7.7 0.9 50 4.2 SE 7 13 4 7 1026.3 1026.5 0.0
20/09:30am 8.6 5.0 0.3 56 3.4 SSE 9 13 5 7 1026.5 1026.7 0.0
20/09:00am 6.7 3.1 0.6 65 2.4 SSW 9 11 5 6 1026.7 1026.9 0.0
20/08:30am 4.8 1.2 0.4 73 1.7 SSE 9 11 5 6 1026.7 1026.9 0.0
20/08:00am 3.7 1.3 -0.3 75 1.5 ESE 2 7 1 4 1026.1 1026.3 0.0
20/07:30am 2.4 -0.8 -0.2 83 1.0 ESE 6 11 3 6 1025.6 1025.8 0.0
20/07:00am 0.5 -3.0 -1.3 88 0.7 SE 7 11 4 6 1025.1 1025.3 0.0
20/06:30am 0.1 -3.5 -1.8 87 0.7 SSE 7 11 4 6 1024.9 1025.1 0.0
20/06:00am -0.5 -4.2 -2.9 84 0.8 SE 7 11 4 6 1024.7 1024.9 0.0
20/05:30am 0.3 -3.7 -2.4 82 0.9 SSE 9 13 5 7 1024.7 1024.9 0.0
20/05:00am 0.8 -3.6 -2.2 80 1.1 S 11 15 6 8 1024.7 1024.9 0.0
20/04:30am 1.0 -3.0 -2.2 79 1.2 SSE 9 11 5 6 1024.4 1024.6 0.0
20/04:00am 1.3 -3.1 -2.1 78 1.2 SSW 11 15 6 8 1024.6 1024.8 0.0
20/03:30am 1.0 -3.4 -2.6 77 1.3 S 11 15 6 8 1024.5 1024.7 0.0
20/03:00am 1.4 -3.3 -1.8 79 1.1 SSW 13 15 7 8 1024.7 1024.9 0.0
20/02:30am 0.2 -3.3 -2.5 82 0.9 S 6 9 3 5 1024.5 1024.7 0.0
20/02:00am -0.1 -3.8 -3.3 79 1.1 S 7 9 4 5 1024.7 1024.9 0.0
20/01:30am -0.1 -3.6 -3.1 80 1.0 SSW 6 9 3 5 1024.9 1025.1 0.0
20/01:00am -0.1 -3.9 -3.8 76 1.2 SSW 7 9 4 5 1025.0 1025.2 0.0
20/12:30am 1.0 -3.1 -3.3 73 1.5 SSW 9 11 5 6 1025.0 1025.2 0.0
20/12:00am 2.5 -1.1 -2.2 71 1.6 S 7 11 4 6 1024.9 1025.1 0.0
 
Date/Time
EST
Temp
°C
App
Temp
°C
Dew
Point
°C
Rel
Hum
%
Delta-T
°C
Wind Press
QNH
hPa
Press
MSL
hPa
Rain since
9am
mm
Dir  Spd
km/h
Gust
km/h
Spd
kts
Gust
kts
19/11:30pm 3.4 -0.2 -1.9 68 1.9 SSW 7 11 4 6 1025.1 1025.3 0.0
19/11:00pm 2.3 -2.1 -2.4 71 1.6 SSW 11 15 6 8 1025.2 1025.4 0.0
19/10:30pm 3.2 -1.2 -2.1 68 1.9 SSW 11 13 6 7 1025.0 1025.2 0.0
19/10:00pm 3.0 -0.6 -1.9 70 1.7 S 7 9 4 5 1024.9 1025.1 0.0
19/09:30pm 2.4 -1.3 -2.5 70 1.7 SSE 7 11 4 6 1025.0 1025.2 0.0
19/09:00pm 3.5 -0.2 -2.7 64 2.2 SSE 7 9 4 5 1025.0 1025.2 0.0
19/08:30pm 3.9 0.8 -2.7 62 2.3 SSE 4 9 2 5 1024.8 1025.0 0.0
19/08:00pm 4.9 1.5 -2.4 59 2.6 SSE 6 9 3 5 1024.5 1024.7 0.0
19/07:30pm 6.2 2.6 -2.2 55 3.1 S 7 11 4 6 1024.5 1024.7 0.0
19/07:00pm 7.3 3.3 -2.2 51 3.5 S 9 13 5 7 1024.1 1024.3 0.0
19/06:30pm 8.4 3.6 -2.5 46 4.1 S 13 15 7 8 1023.8 1024.0 0.0
19/06:00pm 9.9 3.9 -2.7 41 4.8 SSW 19 24 10 13 1023.6 1023.8 0.0
19/05:30pm 10.6 4.4 -3.1 38 5.2 S 20 28 11 15 1023.3 1023.5 0.0
19/05:00pm 11.6 5.1 -2.6 37 5.5 S 22 35 12 19 1022.9 1023.1 0.0
19/04:30pm 11.3 4.4 -2.5 38 5.4 SSW 24 37 13 20 1022.6 1022.8 0.0
19/04:00pm 12.2 4.5 -3.2 34 5.9 SSW 28 39 15 21 1022.4 1022.6 0.0
19/03:30pm 12.3 3.9 -2.7 35 5.9 SSW 32 44 17 24 1022.4 1022.6 0.0
19/03:00pm 12.3 3.8 -2.0 37 5.7 SSW 33 44 18 24 1022.3 1022.5 0.0
19/02:30pm 13.0 5.6 -1.0 38 5.7 SSW 28 43 15 23 1022.3 1022.5 0.0
19/02:00pm 12.8 4.5 -1.9 36 5.9 SSW 32 41 17 22 1022.4 1022.6 0.0
19/01:30pm 13.7 5.6 -0.3 38 5.9 SW 32 44 17 24 1022.4 1022.6 0.0
19/01:00pm 12.7 4.7 0.5 43 5.1 SSW 32 44 17 24 1022.6 1022.8 0.0
19/12:30pm 13.3 5.2 1.3 44 5.2 SSW 33 48 18 26 1022.9 1023.1 0.0
19/12:00pm 12.2 4.1 0.9 46 4.8 SSW 33 46 18 25 1023.4 1023.6 0.0
19/11:30am 12.1 4.6 1.4 48 4.6 SW 30 43 16 23 1023.7 1023.9 0.0
19/11:00am 10.8 3.0 1.4 52 4.0 SSW 32 43 17 23 1023.9 1024.1 0.0
19/10:30am 9.3 2.2 1.2 57 3.4 SSW 28 37 15 20 1024.1 1024.3 0.0
19/10:00am 9.2 2.2 2.1 61 3.0 SSW 28 39 15 21 1024.1 1024.3 0.0
19/09:30am 9.2 3.1 2.5 63 2.9 SSW 24 35 13 19 1024.1 1024.3 0.0
19/09:00am 8.1 1.6 2.6 68 2.3 SSW 26 37 14 20 1023.9 1024.1 0.0
19/08:30am 7.3 1.6 2.8 73 1.9 SSW 22 33 12 18 1023.6 1023.8 0.0
19/08:00am 5.8 1.1 3.0 82 1.2 SW 17 24 9 13 1023.3 1023.5 0.0
19/07:30am 3.6 0.3 2.3 91 0.5 SW 9 13 5 7 1022.7 1022.9 0.0
19/07:00am 1.4 -2.0 -0.4 88 0.7 SW 7 9 4 5 1022.3 1022.5 0.0
19/06:30am 1.8 -2.7 -0.1 87 0.7 WSW 13 15 7 8 1021.9 1022.1 0.0
19/06:00am 2.7 -1.6 0.8 87 0.7 WSW 13 15 7 8 1021.5 1021.7 0.0
19/05:30am 2.3 -1.3 0.4 87 0.7 SW 9 13 5 7 1021.2 1021.4 0.0
19/05:00am 2.3 -1.8 0.0 85 0.9 WSW 11 13 6 7 1021.0 1021.2 0.0
19/04:30am 2.8 -1.6 0.2 83 1.0 W 13 15 7 8 1021.0 1021.2 0.0
19/04:00am 3.0 -1.1 0.1 81 1.1 WSW 11 15 6 8 1020.9 1021.1 0.0
19/03:30am 4.0 -0.4 0.2 76 1.5 WSW 13 17 7 9 1020.8 1021.0 0.0
19/03:00am 5.2 0.1 1.0 74 1.7 SW 17 20 9 11 1021.0 1021.2 0.0
19/02:30am 5.8 0.4 1.0 71 1.9 SW 19 24 10 13 1021.0 1021.2 0.0
19/02:00am 5.6 0.1 0.6 70 2.0 SW 19 20 10 11 1021.0 1021.2 0.0
19/01:30am 6.0 1.3 0.6 68 2.1 SW 15 19 8 10 1021.0 1021.2 0.0
19/01:00am 6.8 1.7 0.9 66 2.4 SW 17 22 9 12 1021.0 1021.2 0.0
19/12:30am 7.2 2.1 0.6 63 2.6 SW 17 24 9 13 1021.1 1021.3 0.0
19/12:00am 7.9 2.5 1.1 62 2.8 SW 19 24 10 13 1021.1 1021.3 0.0
 
Date/Time
EST
Temp
°C
App
Temp
°C
Dew
Point
°C
Rel
Hum
%
Delta-T
°C
Wind Press
QNH
hPa
Press
MSL
hPa
Rain since
9am
mm
Dir  Spd
km/h
Gust
km/h
Spd
kts
Gust
kts
18/11:30pm 8.5 2.8 0.7 58 3.2 SW 20 26 11 14 1021.2 1021.4 0.0
18/11:00pm 9.0 2.5 0.2 54 3.5 SW 24 32 13 17 1021.3 1021.5 0.0
18/10:30pm 8.6 2.8 -0.2 54 3.5 WSW 20 26 11 14 1021.1 1021.3 0.0
18/10:00pm 9.3 3.1 0.0 52 3.7 SW 22 28 12 15 1021.1 1021.3 0.0
18/09:30pm 7.9 2.3 -0.1 57 3.2 WSW 19 26 10 14 1020.9 1021.1 0.0
18/09:00pm 7.0 2.4 -1.4 55 3.2 WSW 13 17 7 9 1020.7 1020.9 0.0
18/08:30pm 8.2 3.2 -1.3 51 3.7 WSW 15 17 8 9 1020.4 1020.6 0.0
18/08:00pm 9.8 4.0 -1.3 46 4.4 SW 19 24 10 13 1020.2 1020.4 0.0
18/07:30pm 10.9 4.9 -1.2 43 4.8 SW 20 28 11 15 1019.8 1020.0 0.0
18/07:00pm 11.3 5.0 -1.1 42 5.0 WSW 22 37 12 20 1019.4 1019.6 0.0
18/06:30pm 11.6 5.3 -1.2 41 5.2 WSW 22 30 12 16 1019.0 1019.1 0.0
18/06:00pm 12.6 4.2 -2.1 36 5.8 WSW 32 44 17 24 1018.6 1018.7 0.0
18/05:30pm 13.3 4.9 -2.2 34 6.2 WSW 32 48 17 26 1018.2 1018.3 0.0
18/05:25pm 13.4 5.4 -2.1 34 6.2 WSW 30 48 16 26 1018.0 1018.2 0.0
18/05:00pm 13.4 5.4 -2.5 33 6.3 WSW 30 41 16 22 1017.7 1017.9 0.0
18/04:30pm 14.0 4.7 -2.4 32 6.6 WSW 37 48 20 26 1017.3 1017.5 0.0
18/04:08pm 15.6 6.7 -2.3 29 7.3 WSW 35 54 19 29 1017.0 1017.2 0.0
18/04:00pm 15.5 6.6 -2.0 30 7.2 WSW 35 46 19 25 1016.9 1017.1 0.0
18/03:30pm 16.6 6.4 -3.0 26 8.0 WSW 41 57 22 31 1016.8 1017.0 0.0
18/03:00pm 16.6 6.6 -1.5 29 7.6 WSW 41 56 22 30 1016.7 1016.9 0.0
18/02:30pm 14.9 6.0 -1.6 32 6.8 WSW 35 56 19 30 1016.7 1016.9 0.0
18/02:24pm 14.8 5.6 -1.7 32 6.8 WSW 37 56 20 30 1016.7 1016.9 0.0
18/02:00pm 17.0 7.1 -1.1 29 7.7 WSW 41 52 22 28 1016.6 1016.8 0.0
18/01:30pm 17.1 7.2 -0.6 30 7.6 WSW 41 59 22 32 1016.8 1017.0 0.0
18/01:02pm 16.1 6.2 -0.6 32 7.1 WSW 41 61 22 33 1016.9 1017.1 0.0
18/01:00pm 16.0 6.1 -0.7 32 7.1 WSW 41 54 22 29 1017.0 1017.2 0.0
18/12:30pm 15.2 5.6 -1.8 31 7.0 WSW 39 50 21 27 1017.4 1017.6 0.0
18/12:00pm 15.5 6.1 -0.3 34 6.7 WSW 39 52 21 28 1017.5 1017.7 0.0
18/11:30am 14.5 5.5 0.0 37 6.2 WSW 37 48 20 26 1017.8 1018.0 0.0
18/11:00am 14.8 5.8 -0.1 36 6.3 WSW 37 50 20 27 1018.2 1018.3 0.0
18/10:30am 14.2 6.1 1.2 41 5.7 WSW 33 44 18 24 1018.2 1018.3 0.0
18/10:00am 13.0 4.3 2.0 47 4.8 WSW 37 46 20 25 1018.4 1018.5 0.0
18/09:30am 12.7 4.4 2.3 49 4.6 WSW 35 44 19 24 1018.3 1018.4 0.0
18/09:00am 12.1 4.3 3.1 54 4.0 WSW 33 44 18 24 1017.9 1018.1 0.0
18/08:30am 10.9 5.0 3.9 62 3.1 W 24 33 13 18 1017.7 1017.9 0.0
18/08:00am 9.8 5.3 4.0 67 2.6 W 17 24 9 13 1017.3 1017.5 0.0
18/07:30am 7.8 3.9 3.5 74 1.9 W 13 15 7 8 1017.0 1017.2 0.0
18/07:00am 6.9 2.9 3.0 76 1.6 W 13 15 7 8 1016.6 1016.8 0.0
18/06:30am 5.7 1.9 2.0 77 1.5 SW 11 15 6 8 1016.0 1016.2 0.0
18/06:00am 6.7 3.4 2.2 73 1.9 SW 9 11 5 6 1015.6 1015.8 0.0
18/05:30am 6.9 3.1 1.6 69 2.2 SW 11 17 6 9 1015.5 1015.7 0.0
18/05:00am 6.8 3.2 0.9 66 2.4 SW 9 17 5 9 1015.1 1015.2 0.0
18/04:30am 8.1 3.4 0.6 59 3.0 SW 15 19 8 10 1014.6 1014.7 0.0
18/04:00am 8.8 3.3 0.5 56 3.4 WSW 19 22 10 12 1014.3 1014.4 0.0
18/03:30am 8.3 2.4 -0.7 53 3.5 WSW 20 26 11 14 1014.0 1014.1 0.0
18/03:00am 7.4 2.8 -1.0 55 3.2 WNW 13 15 7 8 1013.3 1013.4 0.0
18/02:30am 8.0 3.4 -1.2 52 3.6 NW 13 17 7 9 1013.3 1013.4 0.0
18/02:00am 9.4 4.4 -1.3 47 4.2 WNW 15 19 8 10 1013.3 1013.4 0.0
18/01:30am 10.0 5.4 -1.4 45 4.5 WNW 13 19 7 10 1013.4 1013.5 0.0
18/01:00am 9.6 5.0 -1.4 46 4.3 WNW 13 17 7 9 1013.5 1013.6 0.0
18/12:30am 9.2 4.6 -1.2 48 4.1 WNW 13 17 7 9 1013.4 1013.5 0.0
18/12:00am 8.3 3.7 -1.0 52 3.6 WNW 13 19 7 10 1013.5 1013.6 0.0

Other Formats:

Comma delimited format used in spreadsheet applications
http://www.bom.gov.au/fwo/IDN60801/IDN60801.95710.axf

JavaScript Object Notation format (JSON) in row-major order
http://www.bom.gov.au/fwo/IDN60801/IDN60801.95710.json